Time;durP1;ratioP1;P1;durP2;ratioP2;P2;SDS_P1;SDS_P2;PMS_P1;PMS_P2;Temp;Humidity;BMP_temperature;BMP_pressure;BME280_temperature;BME280_humidity;BME280_pressure;Samples;Min_cycle;Max_cycle;Signal;HPM_P1;HPM_P2
2021/04/05 00:01:41;;;;;;;9.45;6.05;;;8.50;74.40;;;;;;5008733;28;20034;-68
2021/04/05 00:04:07;;;;;;;10.02;5.40;;;8.40;74.70;;;;;;5012196;28;20109;-68
2021/04/05 00:06:33;;;;;;;12.48;5.80;;;8.30;75.00;;;;;;5023542;28;20068;-68
2021/04/05 00:08:58;;;;;;;9.27;5.68;;;8.30;75.30;;;;;;5031818;28;20049;-69
2021/04/05 00:11:24;;;;;;;10.05;6.55;;;8.30;75.50;;;;;;5028320;28;20068;-69
2021/04/05 00:13:49;;;;;;;11.55;6.30;;;8.20;75.70;;;;;;5031829;28;20124;-69
2021/04/05 00:16:19;;;;;;;10.63;6.78;;;8.20;75.80;;;;;;5028806;28;20059;-69
2021/04/05 00:18:46;;;;;;;13.32;7.97;;;8.20;76.00;;;;;;5031953;28;20474;-69
2021/04/05 00:21:20;;;;;;;11.18;7.10;;;8.20;76.10;;;;;;5013699;28;20049;-69
2021/04/05 00:23:48;;;;;;;11.32;7.13;;;8.20;76.10;;;;;;5017332;28;20368;-70
2021/04/05 00:26:13;;;;;;;11.95;7.60;;;8.20;76.20;;;;;;5020058;28;20044;-69
2021/04/05 00:28:39;;;;;;;14.05;8.02;;;8.10;76.30;;;;;;5006191;28;20038;-69
2021/04/05 00:31:05;;;;;;;12.27;7.70;;;8.20;76.40;;;;;;5010700;28;20034;-69
2021/04/05 00:33:31;;;;;;;12.20;7.18;;;8.10;76.30;;;;;;5009858;28;20033;-69
2021/04/05 00:35:56;;;;;;;12.32;7.68;;;8.10;76.30;;;;;;5020225;28;20543;-69
2021/04/05 00:38:22;;;;;;;13.30;8.00;;;8.10;76.40;;;;;;5024498;28;20029;-67
2021/04/05 00:40:54;;;;;;;13.73;7.70;;;8.10;76.60;;;;;;5020712;28;20514;-68
2021/04/05 00:43:20;;;;;;;10.60;6.72;;;8.10;76.70;;;;;;4999145;28;20026;-68
2021/04/05 00:45:46;;;;;;;12.00;7.07;;;8.10;76.80;;;;;;5010706;28;20379;-68
2021/04/05 00:48:14;;;;;;;14.20;6.82;;;8.10;76.90;;;;;;5011248;28;20018;-68
2021/04/05 00:50:45;;;;;;;11.77;7.15;;;8.10;76.80;;;;;;5018066;28;20072;-68
2021/04/05 00:53:12;;;;;;;9.52;5.95;;;8.00;77.00;;;;;;5023285;28;20091;-68
2021/04/05 00:55:40;;;;;;;12.25;6.97;;;8.10;77.10;;;;;;5015257;28;20402;-68
2021/04/05 00:58:06;;;;;;;9.88;5.50;;;8.00;77.50;;;;;;5012652;28;20037;-68
2021/04/05 01:00:39;;;;;;;12.30;6.30;;;8.00;77.10;;;;;;5013543;28;20041;-68
2021/04/05 01:03:07;;;;;;;10.88;6.00;;;8.00;77.20;;;;;;5011349;28;20494;-68
2021/04/05 01:05:32;;;;;;;11.80;6.38;;;8.00;77.20;;;;;;5010466;28;20041;-68
2021/04/05 01:07:58;;;;;;;11.45;6.07;;;7.90;77.30;;;;;;5022451;28;20026;-68
2021/04/05 01:10:24;;;;;;;11.13;6.30;;;7.90;77.50;;;;;;5018982;28;20470;-68
2021/04/05 01:12:50;;;;;;;11.75;6.25;;;7.90;77.60;;;;;;5017115;28;20049;-68
2021/04/05 01:15:16;;;;;;;11.68;6.05;;;7.90;77.70;;;;;;5020602;28;20033;-68
2021/04/05 01:17:42;;;;;;;9.90;6.22;;;7.80;77.90;;;;;;5018190;28;20026;-68
2021/04/05 01:20:10;;;;;;;10.63;5.35;;;7.80;77.90;;;;;;5013127;28;20022;-69
2021/04/05 01:22:35;;;;;;;9.70;6.07;;;7.80;78.30;;;;;;5014887;28;20053;-68
2021/04/05 01:25:03;;;;;;;10.35;5.72;;;7.80;78.10;;;;;;5017775;28;20647;-68
2021/04/05 01:27:29;;;;;;;11.55;6.82;;;7.80;78.40;;;;;;5033304;28;20026;-68
2021/04/05 01:29:54;;;;;;;13.13;6.20;;;7.80;78.50;;;;;;5026349;28;20022;-68
2021/04/05 01:32:20;;;;;;;12.00;6.20;;;7.70;78.50;;;;;;5032803;28;20386;-68
2021/04/05 01:34:45;;;;;;;13.00;5.97;;;7.70;78.50;;;;;;5026988;28;20112;-68
2021/04/05 01:37:11;;;;;;;9.50;5.93;;;7.70;78.70;;;;;;5034758;28;20025;-67
2021/04/05 01:39:36;;;;;;;9.95;6.13;;;7.70;78.80;;;;;;5025396;28;20030;-67
2021/04/05 01:42:04;;;;;;;10.50;6.25;;;7.60;78.80;;;;;;5006211;28;20455;-67
2021/04/05 01:44:33;;;;;;;13.15;6.03;;;7.60;79.00;;;;;;5017747;28;20079;-67
2021/04/05 01:46:59;;;;;;;11.48;6.55;;;7.60;79.20;;;;;;5031360;28;20025;-67
2021/04/05 01:49:25;;;;;;;15.65;6.45;;;7.50;79.30;;;;;;5013485;28;20105;-67
2021/04/05 01:51:50;;;;;;;9.95;6.00;;;7.50;79.40;;;;;;5033120;28;20037;-67
2021/04/05 01:54:16;;;;;;;12.23;6.32;;;7.50;79.50;;;;;;5013770;28;20459;-67
2021/04/05 01:56:42;;;;;;;11.00;6.28;;;7.50;79.50;;;;;;5032451;28;20021;-67
2021/04/05 01:59:08;;;;;;;10.40;6.20;;;7.50;79.60;;;;;;5014442;28;20127;-68
2021/04/05 02:01:34;;;;;;;10.63;7.38;;;7.50;79.90;;;;;;5009478;28;20107;-67
2021/04/05 02:04:03;;;;;;;11.60;6.63;;;7.50;79.90;;;;;;4996759;28;20033;-68
2021/04/05 02:06:30;;;;;;;10.30;6.47;;;7.50;80.20;;;;;;5029404;28;20041;-68
2021/04/05 02:08:56;;;;;;;13.07;6.65;;;7.40;80.10;;;;;;5016352;28;20034;-68
2021/04/05 02:11:23;;;;;;;10.60;6.43;;;7.50;80.20;;;;;;5012662;28;20168;-68
2021/04/05 02:13:53;;;;;;;10.82;6.72;;;7.40;80.30;;;;;;5013231;28;20033;-68
2021/04/05 02:16:20;;;;;;;12.07;6.82;;;7.40;80.20;;;;;;5027475;28;20030;-67
2021/04/05 02:18:47;;;;;;;12.48;7.15;;;7.40;80.40;;;;;;5017584;28;20030;-67
2021/04/05 02:21:14;;;;;;;11.43;6.72;;;7.40;80.50;;;;;;5027195;28;20116;-67
2021/04/05 02:23:41;;;;;;;12.70;7.60;;;7.40;80.60;;;;;;5015632;28;20030;-68
2021/04/05 02:26:10;;;;;;;10.93;6.78;;;7.40;80.70;;;;;;5026807;28;20025;-67
2021/04/05 02:28:41;;;;;;;11.07;6.30;;;7.40;80.70;;;;;;5016420;28;20034;-68
2021/04/05 02:31:09;;;;;;;12.95;6.82;;;7.30;80.90;;;;;;5015468;28;20041;-68
2021/04/05 02:33:42;;;;;;;13.90;7.03;;;7.30;81.10;;;;;;5027858;28;20034;-69
2021/04/05 02:36:11;;;;;;;9.35;6.65;;;7.30;81.10;;;;;;5005598;28;20077;-68
2021/04/05 02:38:37;;;;;;;10.90;6.93;;;7.40;80.90;;;;;;5013817;28;20042;-68
2021/04/05 02:41:04;;;;;;;12.85;6.90;;;7.40;80.80;;;;;;5012639;28;20030;-67
2021/04/05 02:43:31;;;;;;;12.02;7.50;;;7.40;80.80;;;;;;5008701;28;20105;-67
2021/04/05 02:45:56;;;;;;;13.10;7.30;;;7.30;80.90;;;;;;5025056;28;20092;-68
2021/04/05 02:48:23;;;;;;;16.17;7.72;;;7.30;81.00;;;;;;5016475;28;20057;-68
2021/04/05 02:50:50;;;;;;;12.80;7.32;;;7.30;80.90;;;;;;5010095;28;20029;-68
2021/04/05 02:53:16;;;;;;;14.05;7.28;;;7.40;81.00;;;;;;5028318;28;20037;-68
2021/04/05 02:55:41;;;;;;;12.63;7.18;;;7.40;81.00;;;;;;5027774;28;20025;-68
2021/04/05 02:58:07;;;;;;;16.25;8.45;;;7.30;80.80;;;;;;5025559;28;20033;-68
2021/04/05 03:00:35;;;;;;;14.73;7.78;;;7.40;80.90;;;;;;5016525;28;20407;-68
2021/04/05 03:03:00;;;;;;;13.63;7.47;;;7.30;81.10;;;;;;5012304;28;20044;-68
2021/04/05 03:05:28;;;;;;;12.18;7.07;;;7.30;81.10;;;;;;5017508;28;20025;-67
2021/04/05 03:07:54;;;;;;;13.65;6.85;;;7.30;81.20;;;;;;5013176;28;20551;-68
2021/04/05 03:10:28;;;;;;;14.07;7.90;;;7.30;81.20;;;;;;5017127;28;20049;-68
2021/04/05 03:12:58;;;;;;;11.40;7.03;;;7.20;81.20;;;;;;5013146;28;20049;-69
2021/04/05 03:15:25;;;;;;;12.85;6.85;;;7.20;81.30;;;;;;5019821;28;20083;-69
2021/04/05 03:17:56;;;;;;;13.82;7.25;;;7.20;81.30;;;;;;5019851;28;20053;-69
2021/04/05 03:20:24;;;;;;;16.95;7.93;;;7.20;81.30;;;;;;5011194;28;20034;-68
2021/04/05 03:22:50;;;;;;;15.02;7.32;;;7.30;81.50;;;;;;5011789;28;20521;-68
2021/04/05 03:25:21;;;;;;;12.65;7.00;;;7.20;81.40;;;;;;5009367;28;20029;-68
2021/04/05 03:27:48;;;;;;;18.20;8.02;;;7.30;81.40;;;;;;5012049;28;20038;-68
2021/04/05 03:30:37;;;;;;;13.35;8.27;;;7.30;81.40;;;;;;5011451;28;20054;-68
2021/04/05 03:33:08;;;;;;;16.17;8.00;;;7.30;81.40;;;;;;5012187;28;20042;-68
2021/04/05 03:35:39;;;;;;;12.43;7.22;;;7.30;81.80;;;;;;5017140;28;20133;-68
2021/04/05 03:38:05;;;;;;;15.25;8.02;;;7.30;81.50;;;;;;5029578;28;20033;-68
2021/04/05 03:40:31;;;;;;;17.38;8.20;;;7.30;81.50;;;;;;5002659;28;20029;-68
2021/04/05 03:43:37;;;;;;;14.90;8.73;;;7.30;81.90;;;;;;4993113;28;20383;-68
2021/04/05 03:46:05;;;;;;;;;;;7.30;81.60;;;;;;5020787;28;20029;-68
2021/04/05 03:48:37;;;;;;;15.15;8.25;;;7.30;81.20;;;;;;5028287;28;19967;-68
2021/04/05 03:51:12;;;;;;;16.23;8.40;;;7.20;81.20;;;;;;5023894;28;20504;-68
2021/04/05 03:53:49;;;;;;;16.65;8.60;;;7.30;81.40;;;;;;5010346;28;20101;-67
2021/04/05 03:56:17;;;;;;;16.70;9.27;;;7.20;81.40;;;;;;5010414;28;20037;-67
2021/04/05 03:58:46;;;;;;;16.65;8.77;;;7.30;81.50;;;;;;5011997;28;20033;-67
2021/04/05 04:01:14;;;;;;;17.30;9.70;;;7.30;81.70;;;;;;5025741;28;20045;-68
2021/04/05 04:04:20;;;;;;;20.98;9.52;;;7.30;81.70;;;;;;5022210;28;20038;-68
2021/04/05 04:06:53;;;;;;;;;;;7.30;81.50;;;;;;5028384;28;20046;-68
2021/04/05 04:09:21;;;;;;;18.85;9.82;;;7.30;81.10;;;;;;5001167;28;19909;-67
2021/04/05 04:11:50;;;;;;;19.05;10.52;;;7.30;81.30;;;;;;5031494;28;20555;-68
2021/04/05 04:14:17;;;;;;;20.90;11.65;;;7.30;81.50;;;;;;5019514;28;20478;-67
2021/04/05 04:16:46;;;;;;;21.00;10.93;;;7.30;81.60;;;;;;5028513;28;20035;-67
2021/04/05 04:19:12;;;;;;;22.88;11.95;;;7.30;81.90;;;;;;5017546;28;20068;-67
2021/04/05 04:21:40;;;;;;;22.15;11.88;;;7.40;81.90;;;;;;5010835;28;20057;-66
2021/04/05 04:24:07;;;;;;;22.58;11.98;;;7.30;81.70;;;;;;5016212;28;20487;-66
2021/04/05 04:26:34;;;;;;;20.00;11.77;;;7.40;81.70;;;;;;5018911;28;20030;-67
2021/04/05 04:29:00;;;;;;;22.30;11.88;;;7.40;81.70;;;;;;5011398;28;20029;-67
2021/04/05 04:31:25;;;;;;;20.85;12.15;;;7.40;81.70;;;;;;5021777;28;20363;-67
2021/04/05 04:33:51;;;;;;;26.52;14.18;;;7.30;81.80;;;;;;5011858;28;20499;-67
2021/04/05 04:36:23;;;;;;;24.42;12.55;;;7.40;81.80;;;;;;5023959;28;20018;-67
2021/04/05 04:38:53;;;;;;;23.88;12.95;;;7.40;81.80;;;;;;5031631;28;20041;-67
2021/04/05 04:41:20;;;;;;;21.17;12.40;;;7.40;81.70;;;;;;5015101;28;20041;-67
2021/04/05 04:43:46;;;;;;;25.88;14.18;;;7.40;81.70;;;;;;5011665;28;20475;-67
2021/04/05 04:46:11;;;;;;;24.85;14.23;;;7.40;81.90;;;;;;5022828;28;20029;-67
2021/04/05 04:48:37;;;;;;;24.10;13.90;;;7.40;81.90;;;;;;5013981;28;20112;-67
2021/04/05 04:51:02;;;;;;;28.10;14.63;;;7.40;81.90;;;;;;5014854;28;20033;-67
2021/04/05 04:53:28;;;;;;;25.55;13.93;;;7.40;81.80;;;;;;5015743;28;20029;-67
2021/04/05 04:55:53;;;;;;;25.90;14.57;;;7.40;81.80;;;;;;5020505;28;20378;-66
2021/04/05 04:58:19;;;;;;;27.85;14.80;;;7.50;81.90;;;;;;5014750;28;20029;-67
2021/04/05 05:00:45;;;;;;;25.98;14.13;;;7.50;82.00;;;;;;5024558;28;20037;-66
2021/04/05 05:03:11;;;;;;;27.42;14.00;;;7.50;81.90;;;;;;5015243;28;20050;-66
2021/04/05 05:05:38;;;;;;;30.77;15.13;;;7.50;81.80;;;;;;5023577;28;20033;-67
2021/04/05 05:08:04;;;;;;;27.10;14.68;;;7.50;81.80;;;;;;4999136;28;20113;-67
2021/04/05 05:10:31;;;;;;;27.35;14.30;;;7.60;81.80;;;;;;5023013;28;20113;-67
2021/04/05 05:12:57;;;;;;;27.17;14.07;;;7.60;81.60;;;;;;5017435;28;20046;-66
2021/04/05 05:15:23;;;;;;;27.83;15.57;;;7.60;81.60;;;;;;5022120;28;20040;-67
2021/04/05 05:17:48;;;;;;;30.15;15.15;;;7.60;81.60;;;;;;5019100;28;20050;-68
2021/04/05 05:20:16;;;;;;;27.40;15.38;;;7.60;81.70;;;;;;5031797;28;20057;-68
2021/04/05 05:22:49;;;;;;;28.00;14.93;;;7.70;81.70;;;;;;5017097;28;20386;-69
2021/04/05 05:25:21;;;;;;;29.77;15.60;;;7.70;81.70;;;;;;5006414;28;20038;-68
2021/04/05 05:27:53;;;;;;;27.13;14.93;;;7.80;81.60;;;;;;4991129;28;20030;-68
2021/04/05 05:30:20;;;;;;;29.90;15.25;;;7.80;81.40;;;;;;5009883;28;20347;-68
2021/04/05 05:32:52;;;;;;;24.83;13.43;;;7.80;81.30;;;;;;5014613;28;20037;-68
2021/04/05 05:35:19;;;;;;;27.45;14.38;;;7.80;81.10;;;;;;5025209;28;20029;-68
2021/04/05 05:37:45;;;;;;;28.20;14.50;;;7.80;81.10;;;;;;5018078;28;20030;-68
2021/04/05 05:40:17;;;;;;;30.25;15.23;;;7.80;81.30;;;;;;5019751;28;20029;-68
2021/04/05 05:43:16;;;;;;;30.48;15.27;;;7.90;81.40;;;;;;5013617;28;20038;-67
2021/04/05 05:46:23;;;;;;;29.75;15.32;;;7.90;81.20;;;;;;5023488;28;20030;-69
2021/04/05 05:49:11;;;;;;;26.52;13.88;;;7.90;81.00;;;;;;5031904;28;20096;-66
2021/04/05 05:51:55;;;;;;;26.40;14.15;;;8.00;81.00;;;;;;5017972;28;20455;-66
2021/04/05 05:54:55;;;;;;;29.98;15.43;;;8.00;80.90;;;;;;5028652;28;20125;-68
2021/04/05 05:57:49;;;;;;;28.00;15.02;;;8.10;80.80;;;;;;4994908;28;20057;-65
2021/04/05 06:00:21;;;;;;;29.48;15.15;;;8.10;80.60;;;;;;5001960;28;20057;-65
2021/04/05 06:03:13;;;;;;;30.42;15.27;;;8.10;80.40;;;;;;5021097;28;20037;-65
2021/04/05 06:05:56;;;;;;;29.67;13.98;;;8.10;80.20;;;;;;5022871;28;20559;-65
2021/04/05 06:08:55;;;;;;;28.17;13.95;;;8.10;80.20;;;;;;5033915;28;20051;-65
2021/04/05 06:11:46;;;;;;;29.15;14.40;;;8.20;80.10;;;;;;5012430;28;20044;-65
2021/04/05 06:14:43;;;;;;;25.45;13.75;;;8.20;80.00;;;;;;5013354;28;20057;-65
2021/04/05 06:17:30;;;;;;;27.67;13.88;;;8.30;80.20;;;;;;5019386;28;20032;-67
2021/04/05 06:20:19;;;;;;;26.45;13.90;;;8.30;80.10;;;;;;5019398;28;20493;-67
2021/04/05 06:23:15;;;;;;;25.50;13.75;;;8.30;80.00;;;;;;5009705;28;20062;-67
2021/04/05 06:25:52;;;;;;;27.88;13.77;;;8.40;79.90;;;;;;4997226;28;20500;-66
2021/04/05 06:28:34;;;;;;;25.65;14.30;;;8.40;79.70;;;;;;5020876;28;20026;-66
2021/04/05 06:31:42;;;;;;;26.30;13.48;;;8.40;79.70;;;;;;5024493;28;20505;-66
2021/04/05 06:34:33;;;;;;;26.35;13.63;;;8.40;79.80;;;;;;5013427;28;20046;-66
2021/04/05 06:37:32;;;;;;;29.48;12.75;;;8.50;79.50;;;;;;5017854;28;20442;-68
2021/04/05 06:40:04;;;;;;;25.70;13.20;;;8.50;79.50;;;;;;5010969;28;20029;-64
2021/04/05 06:42:49;;;;;;;24.00;12.70;;;8.60;79.40;;;;;;5010940;28;20374;-65
2021/04/05 06:45:41;;;;;;;31.40;14.70;;;8.60;79.20;;;;;;5018639;28;20030;-64
2021/04/05 06:48:24;;;;;;;26.75;12.48;;;8.60;79.10;;;;;;5014245;28;20470;-64
2021/04/05 06:51:00;;;;;;;28.13;13.45;;;8.70;79.10;;;;;;5014605;28;20026;-64
2021/04/05 06:53:57;;;;;;;23.67;12.55;;;8.70;79.00;;;;;;5011775;28;20391;-64
2021/04/05 06:56:43;;;;;;;23.23;13.27;;;8.70;79.10;;;;;;5025344;28;20478;-64
2021/04/05 06:59:24;;;;;;;27.08;14.48;;;8.80;79.20;;;;;;5002927;28;20491;-64
2021/04/05 07:02:34;;;;;;;27.67;13.68;;;8.80;79.00;;;;;;4995085;28;20030;-64
2021/04/05 07:05:09;;;;;;;23.90;12.38;;;8.90;78.80;;;;;;5011896;28;20592;-65
2021/04/05 07:07:45;;;;;;;25.70;13.07;;;8.90;78.50;;;;;;5012002;28;20120;-65
2021/04/05 07:10:25;;;;;;;26.13;12.93;;;8.90;78.50;;;;;;5015560;28;20474;-65
2021/04/05 07:13:03;;;;;;;25.92;12.90;;;9.00;78.40;;;;;;5012865;28;20042;-65
2021/04/05 07:15:32;;;;;;;28.13;14.52;;;9.00;78.30;;;;;;5020503;28;20492;-64
2021/04/05 07:18:32;;;;;;;26.92;13.30;;;9.00;78.40;;;;;;5028121;28;20026;-65
2021/04/05 07:21:36;;;;;;;27.98;14.43;;;9.10;78.80;;;;;;5022757;28;20044;-66
2021/04/05 07:24:17;;;;;;;27.40;12.52;;;9.10;79.50;;;;;;5014127;28;20033;-65
2021/04/05 07:27:03;;;;;;;23.35;13.05;;;9.10;80.00;;;;;;5031480;28;20056;-66
2021/04/05 07:29:58;;;;;;;25.45;13.77;;;9.10;81.30;;;;;;4998621;28;20022;-66
2021/04/05 07:33:09;;;;;;;22.60;12.77;;;9.10;81.50;;;;;;5024137;28;20510;-65
2021/04/05 07:35:50;;;;;;;25.35;13.30;;;9.10;81.80;;;;;;5018033;28;20040;-65
2021/04/05 07:38:20;;;;;;;26.20;12.98;;;9.10;82.20;;;;;;5014923;28;20030;-65
2021/04/05 07:41:00;;;;;;;26.05;14.05;;;9.10;82.40;;;;;;5002532;28;20032;-65
2021/04/05 07:43:39;;;;;;;27.70;13.00;;;9.10;82.60;;;;;;5012185;28;20030;-65
2021/04/05 07:46:36;;;;;;;26.90;13.95;;;9.00;82.80;;;;;;5025075;28;20569;-65
2021/04/05 07:49:26;;;;;;;27.77;13.10;;;9.10;83.30;;;;;;5013765;28;20056;-65
2021/04/05 07:51:56;;;;;;;26.15;12.50;;;9.00;83.80;;;;;;5012133;28;20413;-65
2021/04/05 07:54:26;;;;;;;23.75;12.32;;;9.10;83.80;;;;;;5010383;28;20049;-65
2021/04/05 07:57:28;;;;;;;23.65;13.75;;;9.10;84.10;;;;;;5012717;28;20433;-65
2021/04/05 08:00:04;;;;;;;23.00;12.70;;;9.10;84.30;;;;;;5011648;28;20041;-66
2021/04/05 08:02:48;;;;;;;25.02;13.73;;;9.10;84.50;;;;;;5013224;28;20030;-66
2021/04/05 08:05:36;;;;;;;26.02;12.52;;;9.10;84.80;;;;;;5017074;28;20037;-65
2021/04/05 08:08:25;;;;;;;26.27;13.55;;;9.10;85.20;;;;;;5025201;28;20033;-67
2021/04/05 08:11:04;;;;;;;24.38;13.35;;;9.00;85.30;;;;;;5022819;28;20029;-67
2021/04/05 08:14:04;;;;;;;27.63;13.52;;;9.00;85.90;;;;;;5008104;28;20072;-66
2021/04/05 08:16:59;;;;;;;30.02;13.82;;;9.00;86.30;;;;;;5022241;28;20030;-66
2021/04/05 08:19:44;;;;;;;24.75;13.13;;;9.00;86.60;;;;;;5003092;28;20079;-65
2021/04/05 08:22:19;;;;;;;;;;;9.00;87.20;;;;;;5008130;28;20542;-66
2021/04/05 08:24:50;;;;;;;28.15;13.48;;;9.00;87.60;;;;;;5013437;28;19917;-65
2021/04/05 08:27:24;;;;;;;26.80;14.35;;;8.90;88.00;;;;;;5027724;28;20053;-65
2021/04/05 08:30:03;;;;;;;29.13;14.52;;;8.90;88.90;;;;;;5011817;28;20021;-64
2021/04/05 08:32:41;;;;;;;27.25;14.68;;;8.90;89.40;;;;;;5011395;28;20073;-65
2021/04/05 08:35:28;;;;;;;26.92;13.57;;;8.90;89.60;;;;;;5011251;28;20025;-65
2021/04/05 08:38:09;;;;;;;25.70;13.43;;;8.90;90.00;;;;;;5014151;28;20112;-64
2021/04/05 08:40:45;;;;;;;26.75;13.43;;;8.90;90.10;;;;;;5020808;28;20030;-64
2021/04/05 08:43:22;;;;;;;28.02;14.52;;;8.80;90.30;;;;;;5019841;28;20061;-65
2021/04/05 08:46:07;;;;;;;29.95;14.50;;;8.80;90.70;;;;;;5010025;28;20386;-64
2021/04/05 08:48:36;;;;;;;29.08;14.55;;;8.80;90.90;;;;;;5009542;28;20034;-64
2021/04/05 08:51:07;;;;;;;30.23;13.82;;;8.80;90.80;;;;;;5010354;28;20030;-64
2021/04/05 08:53:39;;;;;;;27.25;14.98;;;8.80;90.90;;;;;;5018049;28;20053;-64
2021/04/05 08:56:05;;;;;;;26.67;14.60;;;8.80;91.10;;;;;;5011555;28;20029;-65
2021/04/05 08:58:44;;;;;;;27.75;15.30;;;8.80;91.10;;;;;;4994049;28;20053;-65
2021/04/05 09:01:14;;;;;;;27.55;15.60;;;8.90;91.10;;;;;;5011364;28;20526;-64
2021/04/05 09:03:43;;;;;;;34.25;15.27;;;8.80;91.10;;;;;;5011823;28;20114;-64
2021/04/05 09:06:14;;;;;;;28.27;15.70;;;8.80;91.20;;;;;;5010981;28;20069;-64
2021/04/05 09:08:42;;;;;;;30.95;14.82;;;8.90;91.40;;;;;;5010931;28;20050;-64
2021/04/05 09:11:11;;;;;;;29.02;15.68;;;8.80;91.40;;;;;;5010922;28;20105;-63
2021/04/05 09:13:47;;;;;;;32.53;16.42;;;8.80;91.30;;;;;;5010705;28;20132;-64
2021/04/05 09:16:24;;;;;;;31.55;16.48;;;8.80;91.40;;;;;;5011011;28;20022;-64
2021/04/05 09:19:13;;;;;;;30.60;15.02;;;8.80;91.60;;;;;;5011393;28;20061;-64
2021/04/05 09:22:03;;;;;;;33.45;16.08;;;8.70;91.60;;;;;;5010872;28;20040;-64
2021/04/05 09:25:06;;;;;;;31.35;15.73;;;8.80;91.60;;;;;;5011198;28;20562;-64
2021/04/05 09:28:05;;;;;;;29.20;15.45;;;8.80;91.60;;;;;;5011571;28;20034;-64
2021/04/05 09:30:55;;;;;;;32.53;17.17;;;8.80;91.80;;;;;;5010806;28;20036;-64
2021/04/05 09:33:58;;;;;;;33.60;16.90;;;8.70;92.00;;;;;;5010661;28;20050;-64
2021/04/05 09:36:52;;;;;;;18.20;9.88;;;8.70;92.40;;;;;;5014029;28;20105;-63
2021/04/05 09:40:05;;;;;;;11.32;6.38;;;8.50;92.40;;;;;;4996814;28;20049;-64
2021/04/05 09:42:53;;;;;;;7.68;4.70;;;8.30;92.00;;;;;;5013774;28;20026;-64
2021/04/05 09:45:22;;;;;;;7.13;3.63;;;8.20;92.10;;;;;;5013894;28;20486;-64
2021/04/05 09:48:16;;;;;;;6.28;3.40;;;8.10;92.00;;;;;;5014427;28;20029;-64
2021/04/05 09:51:07;;;;;;;4.80;2.47;;;8.00;92.10;;;;;;5013992;28;20076;-63
2021/04/05 09:54:00;;;;;;;4.32;2.50;;;8.00;92.10;;;;;;5014684;28;20372;-64
2021/04/05 09:56:32;;;;;;;7.60;2.75;;;7.90;92.20;;;;;;5009742;28;20026;-64
2021/04/05 09:59:07;;;;;;;2.65;1.50;;;7.80;92.30;;;;;;5013845;28;20045;-65
2021/04/05 10:01:34;;;;;;;2.72;1.63;;;7.80;92.40;;;;;;5009829;28;20040;-65
2021/04/05 10:04:07;;;;;;;2.10;1.40;;;7.70;92.30;;;;;;5012976;28;20434;-65
2021/04/05 10:06:35;;;;;;;3.38;1.60;;;7.70;92.40;;;;;;5004645;28;20036;-66
2021/04/05 10:09:05;;;;;;;2.75;1.45;;;7.80;92.20;;;;;;4995933;28;20042;-65
2021/04/05 10:11:34;;;;;;;4.28;1.50;;;7.70;92.20;;;;;;5011432;28;20026;-66
2021/04/05 10:14:04;;;;;;;2.70;1.55;;;7.80;92.30;;;;;;5010648;28;20026;-65
2021/04/05 10:16:32;;;;;;;2.33;1.20;;;7.80;92.40;;;;;;5013700;28;20030;-65
2021/04/05 10:19:05;;;;;;;2.38;1.30;;;7.80;91.90;;;;;;5005959;28;20105;-65
2021/04/05 10:21:35;;;;;;;3.13;1.50;;;7.80;91.90;;;;;;5005382;28;20099;-65
2021/04/05 10:24:04;;;;;;;3.47;1.50;;;7.90;91.80;;;;;;5020163;28;20037;-65
2021/04/05 10:26:33;;;;;;;2.67;1.38;;;7.90;91.80;;;;;;5029277;28;20043;-65
2021/04/05 10:29:01;;;;;;;2.25;1.23;;;8.00;91.70;;;;;;5013399;28;20444;-64
2021/04/05 10:31:28;;;;;;;4.63;1.85;;;8.00;91.50;;;;;;5013092;28;20394;-65
2021/04/05 10:34:04;;;;;;;3.47;1.48;;;8.10;91.50;;;;;;5028000;28;20045;-65
2021/04/05 10:36:38;;;;;;;3.13;1.70;;;8.20;91.50;;;;;;5030339;28;20033;-65
2021/04/05 10:39:04;;;;;;;2.15;1.38;;;8.20;91.50;;;;;;5013579;28;20064;-64
2021/04/05 10:41:30;;;;;;;5.10;1.77;;;8.30;91.40;;;;;;5028927;28;20510;-64
2021/04/05 10:44:04;;;;;;;3.65;1.70;;;8.40;91.40;;;;;;5014977;28;20463;-64
2021/04/05 10:46:32;;;;;;;6.25;1.70;;;8.40;91.30;;;;;;5027908;28;20091;-65
2021/04/05 10:49:07;;;;;;;2.25;1.38;;;8.50;91.20;;;;;;5015443;28;20080;-64
2021/04/05 10:51:44;;;;;;;2.72;1.20;;;8.60;90.90;;;;;;4995138;28;20030;-64
2021/04/05 10:54:19;;;;;;;2.38;1.30;;;8.60;90.80;;;;;;5012883;28;20104;-64
2021/04/05 10:56:49;;;;;;;;;;;8.70;90.70;;;;;;5013535;28;20026;-65
2021/04/05 10:59:51;;;;;;;2.22;1.33;;;8.70;90.40;;;;;;5009680;28;19913;-65
2021/04/05 11:02:35;;;;;;;2.35;1.50;;;8.80;90.30;;;;;;4993142;28;20089;-65
2021/04/05 11:05:08;;;;;;;2.72;1.58;;;8.80;90.00;;;;;;5005366;28;20036;-65
2021/04/05 11:07:34;;;;;;;2.55;1.40;;;8.80;89.90;;;;;;5007304;28;20156;-65
2021/04/05 11:10:17;;;;;;;3.55;1.60;;;8.80;89.80;;;;;;5016119;28;20029;-64
2021/04/05 11:12:45;;;;;;;3.28;1.38;;;8.80;89.50;;;;;;5008852;28;20041;-65
2021/04/05 11:15:32;;;;;;;2.97;1.50;;;8.70;88.60;;;;;;4996541;28;20049;-64
2021/04/05 11:18:21;;;;;;;4.18;1.50;;;8.70;87.90;;;;;;5009985;28;20128;-64
2021/04/05 11:20:50;;;;;;;2.58;1.42;;;8.70;88.10;;;;;;5017454;28;20799;-65
2021/04/05 11:23:21;;;;;;;2.20;1.40;;;8.70;88.70;;;;;;5014356;28;20049;-65
2021/04/05 11:25:52;;;;;;;4.05;1.60;;;8.80;88.00;;;;;;5002276;28;20063;-65
2021/04/05 11:28:21;;;;;;;3.00;1.58;;;8.70;87.80;;;;;;5017936;28;20044;-65
2021/04/05 11:30:48;;;;;;;8.18;2.55;;;8.80;88.00;;;;;;5013900;28;20030;-66
2021/04/05 11:33:15;;;;;;;5.45;1.60;;;8.80;89.10;;;;;;5012306;28;20037;-64
2021/04/05 11:35:43;;;;;;;3.05;1.23;;;8.80;89.30;;;;;;5011457;28;20030;-65
2021/04/05 11:38:13;;;;;;;2.58;1.40;;;9.00;87.30;;;;;;5012241;28;20042;-65
2021/04/05 11:40:40;;;;;;;2.72;1.20;;;9.00;85.50;;;;;;5010237;28;20018;-68
2021/04/05 11:43:14;;;;;;;1.52;1.00;;;9.00;83.50;;;;;;5010702;28;20101;-66
2021/04/05 11:45:48;;;;;;;3.22;1.33;;;8.90;79.10;;;;;;5016481;28;20108;-66
2021/04/05 11:48:21;;;;;;;3.33;2.00;;;8.90;79.00;;;;;;5011479;28;20044;-63
2021/04/05 11:50:48;;;;;;;2.17;1.15;;;9.00;80.40;;;;;;5020851;28;20055;-66
2021/04/05 11:53:23;;;;;;;4.20;1.00;;;9.00;79.40;;;;;;5009103;28;20457;-66
2021/04/05 11:55:54;;;;;;;;;;;9.10;76.70;;;;;;5011901;28;20363;-66
2021/04/05 11:58:27;;;;;;;2.90;1.20;;;9.10;75.20;;;;;;5009841;28;20417;-65
2021/04/05 12:01:01;;;;;;;3.30;1.27;;;9.10;76.10;;;;;;5023356;28;20042;-66
2021/04/05 12:03:35;;;;;;;4.72;1.38;;;9.20;75.20;;;;;;4988101;28;20029;-66
2021/04/05 12:06:09;;;;;;;3.90;1.88;;;9.10;73.50;;;;;;5015463;28;20044;-66
2021/04/05 12:08:58;;;;;;;2.42;1.50;;;8.70;77.00;;;;;;4992829;28;20026;-67
2021/04/05 12:11:30;;;;;;;3.78;1.65;;;8.10;81.80;;;;;;4999536;28;20050;-66
2021/04/05 12:14:05;;;;;;;4.45;1.70;;;7.60;83.70;;;;;;5011669;28;20030;-64
2021/04/05 12:16:32;;;;;;;5.40;1.45;;;7.30;86.30;;;;;;5014320;28;20030;-63
2021/04/05 12:18:58;;;;;;;5.00;1.58;;;7.00;87.50;;;;;;5012014;28;20030;-64
2021/04/05 12:21:27;;;;;;;3.88;1.80;;;6.80;87.90;;;;;;5020123;28;20026;-65
2021/04/05 12:23:58;;;;;;;3.65;1.55;;;6.70;90.00;;;;;;5012065;28;20033;-64
2021/04/05 12:26:26;;;;;;;2.88;1.50;;;6.60;90.60;;;;;;5007476;28;20497;-64
2021/04/05 12:28:54;;;;;;;4.05;1.50;;;6.70;90.50;;;;;;5010813;28;20069;-65
2021/04/05 12:31:23;;;;;;;2.40;1.30;;;6.70;91.00;;;;;;5010687;28;20045;-65
2021/04/05 12:33:52;;;;;;;2.95;1.50;;;6.70;90.80;;;;;;5027795;28;20061;-65
2021/04/05 12:36:17;;;;;;;3.58;1.50;;;6.80;90.60;;;;;;5026559;28;20587;-65
2021/04/05 12:38:45;;;;;;;2.28;1.20;;;7.00;90.90;;;;;;5022640;28;20061;-65
2021/04/05 12:41:10;;;;;;;1.77;1.00;;;7.10;90.50;;;;;;5006129;28;20041;-65
2021/04/05 12:43:38;;;;;;;2.22;1.40;;;7.30;90.30;;;;;;4994145;28;20094;-65
2021/04/05 12:46:07;;;;;;;3.25;1.13;;;7.30;89.90;;;;;;5023072;28;20038;-65
2021/04/05 12:48:36;;;;;;;2.22;1.33;;;7.50;90.00;;;;;;5021236;28;20367;-65
2021/04/05 12:51:11;;;;;;;1.85;1.23;;;7.60;90.20;;;;;;5016664;28;20025;-65
2021/04/05 12:53:39;;;;;;;1.83;1.30;;;7.70;89.50;;;;;;5010239;28;20048;-65
2021/04/05 12:56:16;;;;;;;1.75;0.90;;;7.90;88.00;;;;;;5021046;28;20500;-65
2021/04/05 12:58:42;;;;;;;1.80;1.35;;;7.90;86.10;;;;;;5011777;28;20033;-66
2021/04/05 13:01:08;;;;;;;3.08;1.00;;;7.90;83.40;;;;;;5022046;28;20671;-66
2021/04/05 13:03:38;;;;;;;1.83;1.20;;;7.80;83.20;;;;;;5011631;28;20026;-66
2021/04/05 13:06:08;;;;;;;1.77;1.17;;;7.90;83.00;;;;;;5023861;28;20168;-66
2021/04/05 13:09:00;;;;;;;3.72;1.40;;;7.90;81.50;;;;;;5031128;28;20033;-65
2021/04/05 13:11:28;;;;;;;2.08;1.10;;;7.90;82.10;;;;;;5013740;28;20482;-65
2021/04/05 13:13:59;;;;;;;3.55;1.20;;;7.90;81.50;;;;;;4993713;28;20073;-65
2021/04/05 13:17:11;;;;;;;1.70;0.88;;;7.90;81.20;;;;;;5032655;28;20025;-65
2021/04/05 13:19:50;;;;;;;1.77;0.93;;;7.90;80.40;;;;;;5018363;28;20490;-65
2021/04/05 13:22:23;;;;;;;0.90;0.90;;;7.90;80.90;;;;;;5011957;28;20108;-66
2021/04/05 13:24:58;;;;;;;1.35;0.90;;;8.00;78.90;;;;;;5015340;28;20033;-66